sensor_id;sensor_type;location;lat;lon;timestamp;P1;durP1;ratioP1;P2;durP2;ratioP2
18748;SDS011;9503;53.560;10.246;2023-11-19T00:01:31;11.13;;;6.27;;
18748;SDS011;9503;53.560;10.246;2023-11-19T00:03:58;10.90;;;5.90;;
18748;SDS011;9503;53.560;10.246;2023-11-19T00:06:25;10.77;;;5.50;;
18748;SDS011;9503;53.560;10.246;2023-11-19T00:08:54;8.60;;;5.20;;
18748;SDS011;9503;53.560;10.246;2023-11-19T00:11:20;9.93;;;5.77;;
18748;SDS011;9503;53.560;10.246;2023-11-19T00:13:47;14.37;;;5.80;;
18748;SDS011;9503;53.560;10.246;2023-11-19T00:16:14;9.50;;;5.47;;
18748;SDS011;9503;53.560;10.246;2023-11-19T00:18:41;10.13;;;5.33;;
18748;SDS011;9503;53.560;10.246;2023-11-19T00:21:08;7.23;;;4.60;;
18748;SDS011;9503;53.560;10.246;2023-11-19T00:23:35;8.67;;;5.07;;
18748;SDS011;9503;53.560;10.246;2023-11-19T00:26:03;7.83;;;4.77;;
18748;SDS011;9503;53.560;10.246;2023-11-19T00:28:31;8.57;;;5.10;;
18748;SDS011;9503;53.560;10.246;2023-11-19T00:30:58;8.00;;;4.93;;
18748;SDS011;9503;53.560;10.246;2023-11-19T00:33:25;7.63;;;4.60;;
18748;SDS011;9503;53.560;10.246;2023-11-19T00:35:51;8.77;;;4.47;;
18748;SDS011;9503;53.560;10.246;2023-11-19T00:38:18;8.10;;;4.40;;
18748;SDS011;9503;53.560;10.246;2023-11-19T00:40:44;7.30;;;4.10;;
18748;SDS011;9503;53.560;10.246;2023-11-19T00:43:12;8.67;;;3.93;;
18748;SDS011;9503;53.560;10.246;2023-11-19T00:45:39;6.53;;;3.67;;
18748;SDS011;9503;53.560;10.246;2023-11-19T00:48:05;5.77;;;3.43;;
18748;SDS011;9503;53.560;10.246;2023-11-19T00:50:32;6.30;;;3.10;;
18748;SDS011;9503;53.560;10.246;2023-11-19T00:52:59;4.33;;;3.10;;
18748;SDS011;9503;53.560;10.246;2023-11-19T00:55:25;6.13;;;2.90;;
18748;SDS011;9503;53.560;10.246;2023-11-19T00:57:52;4.23;;;2.87;;
18748;SDS011;9503;53.560;10.246;2023-11-19T01:00:20;5.13;;;3.13;;
18748;SDS011;9503;53.560;10.246;2023-11-19T01:02:49;4.20;;;2.87;;
18748;SDS011;9503;53.560;10.246;2023-11-19T01:05:16;4.10;;;2.87;;
18748;SDS011;9503;53.560;10.246;2023-11-19T01:07:43;3.97;;;2.80;;
18748;SDS011;9503;53.560;10.246;2023-11-19T01:10:10;3.33;;;2.70;;
18748;SDS011;9503;53.560;10.246;2023-11-19T01:12:36;4.07;;;2.90;;
18748;SDS011;9503;53.560;10.246;2023-11-19T01:15:03;5.30;;;3.13;;
18748;SDS011;9503;53.560;10.246;2023-11-19T01:17:32;4.90;;;2.80;;
18748;SDS011;9503;53.560;10.246;2023-11-19T01:19:59;3.97;;;2.87;;
18748;SDS011;9503;53.560;10.246;2023-11-19T01:22:26;4.40;;;2.90;;
18748;SDS011;9503;53.560;10.246;2023-11-19T01:24:52;4.63;;;2.90;;
18748;SDS011;9503;53.560;10.246;2023-11-19T01:27:19;3.47;;;2.60;;
18748;SDS011;9503;53.560;10.246;2023-11-19T01:29:46;3.43;;;2.60;;
18748;SDS011;9503;53.560;10.246;2023-11-19T01:32:12;2.20;;;2.00;;
18748;SDS011;9503;53.560;10.246;2023-11-19T01:34:40;2.20;;;2.00;;
18748;SDS011;9503;53.560;10.246;2023-11-19T01:37:07;2.33;;;2.00;;
18748;SDS011;9503;53.560;10.246;2023-11-19T01:39:35;2.60;;;2.37;;
18748;SDS011;9503;53.560;10.246;2023-11-19T01:42:01;3.03;;;1.80;;
18748;SDS011;9503;53.560;10.246;2023-11-19T01:44:28;2.27;;;1.97;;
18748;SDS011;9503;53.560;10.246;2023-11-19T01:46:54;2.43;;;1.97;;
18748;SDS011;9503;53.560;10.246;2023-11-19T01:49:21;2.17;;;1.97;;
18748;SDS011;9503;53.560;10.246;2023-11-19T01:51:49;2.80;;;1.90;;
18748;SDS011;9503;53.560;10.246;2023-11-19T01:54:16;2.23;;;2.03;;
18748;SDS011;9503;53.560;10.246;2023-11-19T01:56:43;2.93;;;1.90;;
18748;SDS011;9503;53.560;10.246;2023-11-19T01:59:10;2.57;;;2.37;;
18748;SDS011;9503;53.560;10.246;2023-11-19T02:01:39;2.20;;;1.93;;
18748;SDS011;9503;53.560;10.246;2023-11-19T02:04:06;2.87;;;1.70;;
18748;SDS011;9503;53.560;10.246;2023-11-19T02:06:34;1.80;;;1.70;;
18748;SDS011;9503;53.560;10.246;2023-11-19T02:09:07;1.70;;;1.60;;
18748;SDS011;9503;53.560;10.246;2023-11-19T02:11:35;1.77;;;1.63;;
18748;SDS011;9503;53.560;10.246;2023-11-19T02:14:02;3.07;;;2.00;;
18748;SDS011;9503;53.560;10.246;2023-11-19T02:16:29;1.97;;;1.60;;
18748;SDS011;9503;53.560;10.246;2023-11-19T02:18:56;1.73;;;1.50;;
18748;SDS011;9503;53.560;10.246;2023-11-19T02:21:22;1.90;;;1.60;;
18748;SDS011;9503;53.560;10.246;2023-11-19T02:23:49;1.70;;;1.60;;
18748;SDS011;9503;53.560;10.246;2023-11-19T02:26:18;1.80;;;1.70;;
18748;SDS011;9503;53.560;10.246;2023-11-19T02:28:55;1.30;;;1.20;;
18748;SDS011;9503;53.560;10.246;2023-11-19T02:31:22;1.33;;;1.30;;
18748;SDS011;9503;53.560;10.246;2023-11-19T02:33:49;1.80;;;1.67;;
18748;SDS011;9503;53.560;10.246;2023-11-19T02:36:16;1.60;;;1.50;;
18748;SDS011;9503;53.560;10.246;2023-11-19T02:38:43;1.37;;;1.27;;
18748;SDS011;9503;53.560;10.246;2023-11-19T02:41:10;1.83;;;1.50;;
18748;SDS011;9503;53.560;10.246;2023-11-19T02:43:36;1.50;;;1.40;;
18748;SDS011;9503;53.560;10.246;2023-11-19T02:46:05;1.67;;;1.57;;
18748;SDS011;9503;53.560;10.246;2023-11-19T02:48:33;1.67;;;1.57;;
18748;SDS011;9503;53.560;10.246;2023-11-19T02:51:00;1.57;;;1.43;;
18748;SDS011;9503;53.560;10.246;2023-11-19T02:53:28;1.87;;;1.67;;
18748;SDS011;9503;53.560;10.246;2023-11-19T02:55:55;2.63;;;1.70;;
18748;SDS011;9503;53.560;10.246;2023-11-19T02:58:26;1.80;;;1.70;;
18748;SDS011;9503;53.560;10.246;2023-11-19T03:00:53;1.87;;;1.67;;
18748;SDS011;9503;53.560;10.246;2023-11-19T03:03:24;1.93;;;1.70;;
18748;SDS011;9503;53.560;10.246;2023-11-19T03:05:53;1.70;;;1.60;;
18748;SDS011;9503;53.560;10.246;2023-11-19T03:08:20;2.67;;;1.90;;
18748;SDS011;9503;53.560;10.246;2023-11-19T03:10:47;2.30;;;2.10;;
18748;SDS011;9503;53.560;10.246;2023-11-19T03:13:14;1.60;;;1.50;;
18748;SDS011;9503;53.560;10.246;2023-11-19T03:15:42;1.80;;;1.70;;
18748;SDS011;9503;53.560;10.246;2023-11-19T03:18:08;2.63;;;2.00;;
18748;SDS011;9503;53.560;10.246;2023-11-19T03:20:36;1.73;;;1.63;;
18748;SDS011;9503;53.560;10.246;2023-11-19T03:23:03;1.87;;;1.77;;
18748;SDS011;9503;53.560;10.246;2023-11-19T03:25:31;1.87;;;1.77;;
18748;SDS011;9503;53.560;10.246;2023-11-19T03:27:59;2.33;;;2.13;;
18748;SDS011;9503;53.560;10.246;2023-11-19T03:30:26;2.40;;;2.20;;
18748;SDS011;9503;53.560;10.246;2023-11-19T03:32:54;1.93;;;1.83;;
18748;SDS011;9503;53.560;10.246;2023-11-19T03:35:21;2.07;;;1.87;;
18748;SDS011;9503;53.560;10.246;2023-11-19T03:37:49;2.13;;;1.93;;
18748;SDS011;9503;53.560;10.246;2023-11-19T03:40:16;2.10;;;1.90;;
18748;SDS011;9503;53.560;10.246;2023-11-19T03:42:44;2.30;;;2.10;;
18748;SDS011;9503;53.560;10.246;2023-11-19T03:45:10;2.20;;;2.00;;
18748;SDS011;9503;53.560;10.246;2023-11-19T03:47:37;2.30;;;2.10;;
18748;SDS011;9503;53.560;10.246;2023-11-19T03:50:04;2.60;;;2.40;;
18748;SDS011;9503;53.560;10.246;2023-11-19T03:52:32;2.60;;;2.33;;
18748;SDS011;9503;53.560;10.246;2023-11-19T03:55:00;3.00;;;2.23;;
18748;SDS011;9503;53.560;10.246;2023-11-19T03:57:28;2.63;;;2.43;;
18748;SDS011;9503;53.560;10.246;2023-11-19T03:59:54;4.07;;;2.70;;
18748;SDS011;9503;53.560;10.246;2023-11-19T04:02:23;2.87;;;2.47;;
18748;SDS011;9503;53.560;10.246;2023-11-19T04:04:52;2.60;;;2.20;;
18748;SDS011;9503;53.560;10.246;2023-11-19T04:07:19;2.67;;;2.47;;
18748;SDS011;9503;53.560;10.246;2023-11-19T04:09:46;2.60;;;2.40;;
18748;SDS011;9503;53.560;10.246;2023-11-19T04:12:14;3.73;;;2.77;;
18748;SDS011;9503;53.560;10.246;2023-11-19T04:14:40;2.97;;;2.60;;
18748;SDS011;9503;53.560;10.246;2023-11-19T04:17:07;2.60;;;2.40;;
18748;SDS011;9503;53.560;10.246;2023-11-19T04:19:34;3.20;;;2.80;;
18748;SDS011;9503;53.560;10.246;2023-11-19T04:22:00;3.90;;;3.10;;
18748;SDS011;9503;53.560;10.246;2023-11-19T04:24:27;5.67;;;2.97;;
18748;SDS011;9503;53.560;10.246;2023-11-19T04:26:53;4.37;;;3.00;;
18748;SDS011;9503;53.560;10.246;2023-11-19T04:29:21;4.83;;;3.30;;
18748;SDS011;9503;53.560;10.246;2023-11-19T04:31:48;4.30;;;3.03;;
18748;SDS011;9503;53.560;10.246;2023-11-19T04:34:14;3.00;;;2.70;;
18748;SDS011;9503;53.560;10.246;2023-11-19T04:36:41;4.33;;;3.40;;
18748;SDS011;9503;53.560;10.246;2023-11-19T04:39:08;4.07;;;3.17;;
18748;SDS011;9503;53.560;10.246;2023-11-19T04:41:41;3.60;;;3.30;;
18748;SDS011;9503;53.560;10.246;2023-11-19T04:44:12;5.90;;;3.30;;
18748;SDS011;9503;53.560;10.246;2023-11-19T04:46:40;4.30;;;3.20;;
18748;SDS011;9503;53.560;10.246;2023-11-19T04:49:08;4.90;;;3.47;;
18748;SDS011;9503;53.560;10.246;2023-11-19T04:51:37;5.00;;;3.77;;
18748;SDS011;9503;53.560;10.246;2023-11-19T04:54:04;7.03;;;4.33;;
18748;SDS011;9503;53.560;10.246;2023-11-19T04:56:31;5.50;;;4.33;;
18748;SDS011;9503;53.560;10.246;2023-11-19T04:58:58;8.33;;;4.77;;
18748;SDS011;9503;53.560;10.246;2023-11-19T05:01:25;6.73;;;4.73;;
18748;SDS011;9503;53.560;10.246;2023-11-19T05:03:53;6.90;;;4.47;;
18748;SDS011;9503;53.560;10.246;2023-11-19T05:06:19;6.17;;;3.97;;
18748;SDS011;9503;53.560;10.246;2023-11-19T05:08:46;6.27;;;4.37;;
18748;SDS011;9503;53.560;10.246;2023-11-19T05:11:12;7.63;;;5.07;;
18748;SDS011;9503;53.560;10.246;2023-11-19T05:13:43;5.43;;;3.67;;
18748;SDS011;9503;53.560;10.246;2023-11-19T05:16:10;10.07;;;4.73;;
18748;SDS011;9503;53.560;10.246;2023-11-19T05:18:39;7.80;;;5.23;;
18748;SDS011;9503;53.560;10.246;2023-11-19T05:21:07;8.73;;;5.40;;
18748;SDS011;9503;53.560;10.246;2023-11-19T05:23:34;9.67;;;5.40;;
18748;SDS011;9503;53.560;10.246;2023-11-19T05:26:00;8.77;;;5.30;;
18748;SDS011;9503;53.560;10.246;2023-11-19T05:28:27;10.67;;;5.50;;
18748;SDS011;9503;53.560;10.246;2023-11-19T05:30:54;10.17;;;5.63;;
18748;SDS011;9503;53.560;10.246;2023-11-19T05:33:21;11.83;;;5.50;;
18748;SDS011;9503;53.560;10.246;2023-11-19T05:35:48;10.07;;;6.00;;
18748;SDS011;9503;53.560;10.246;2023-11-19T05:38:16;11.13;;;5.60;;
18748;SDS011;9503;53.560;10.246;2023-11-19T05:40:42;10.83;;;6.60;;
18748;SDS011;9503;53.560;10.246;2023-11-19T05:43:10;9.50;;;5.97;;
18748;SDS011;9503;53.560;10.246;2023-11-19T05:45:36;10.77;;;6.80;;
18748;SDS011;9503;53.560;10.246;2023-11-19T05:48:03;10.73;;;6.67;;
18748;SDS011;9503;53.560;10.246;2023-11-19T05:50:30;13.90;;;6.83;;
18748;SDS011;9503;53.560;10.246;2023-11-19T05:52:57;16.00;;;7.43;;
18748;SDS011;9503;53.560;10.246;2023-11-19T05:55:25;12.97;;;6.73;;
18748;SDS011;9503;53.560;10.246;2023-11-19T05:57:53;13.43;;;7.37;;
18748;SDS011;9503;53.560;10.246;2023-11-19T06:00:19;13.40;;;7.67;;
18748;SDS011;9503;53.560;10.246;2023-11-19T06:02:46;13.13;;;7.43;;
18748;SDS011;9503;53.560;10.246;2023-11-19T06:05:12;18.23;;;8.57;;
18748;SDS011;9503;53.560;10.246;2023-11-19T06:07:39;15.87;;;7.47;;
18748;SDS011;9503;53.560;10.246;2023-11-19T06:10:06;19.20;;;9.40;;
18748;SDS011;9503;53.560;10.246;2023-11-19T06:12:36;16.30;;;8.37;;
18748;SDS011;9503;53.560;10.246;2023-11-19T06:15:04;18.13;;;8.63;;
18748;SDS011;9503;53.560;10.246;2023-11-19T06:17:31;16.83;;;9.17;;
18748;SDS011;9503;53.560;10.246;2023-11-19T06:19:58;24.20;;;9.30;;
18748;SDS011;9503;53.560;10.246;2023-11-19T06:22:24;19.83;;;9.20;;
18748;SDS011;9503;53.560;10.246;2023-11-19T06:24:51;22.10;;;9.83;;
18748;SDS011;9503;53.560;10.246;2023-11-19T06:27:18;17.50;;;9.60;;
18748;SDS011;9503;53.560;10.246;2023-11-19T06:29:46;17.77;;;9.67;;
18748;SDS011;9503;53.560;10.246;2023-11-19T06:32:12;16.37;;;8.80;;
18748;SDS011;9503;53.560;10.246;2023-11-19T06:34:40;17.23;;;9.23;;
18748;SDS011;9503;53.560;10.246;2023-11-19T06:37:07;18.67;;;9.43;;
18748;SDS011;9503;53.560;10.246;2023-11-19T06:39:34;17.97;;;9.43;;
18748;SDS011;9503;53.560;10.246;2023-11-19T06:42:02;18.63;;;9.43;;
18748;SDS011;9503;53.560;10.246;2023-11-19T06:44:29;35.03;;;10.63;;
18748;SDS011;9503;53.560;10.246;2023-11-19T06:46:57;21.70;;;10.00;;
18748;SDS011;9503;53.560;10.246;2023-11-19T06:49:23;21.57;;;10.20;;
18748;SDS011;9503;53.560;10.246;2023-11-19T06:51:50;15.53;;;8.20;;
18748;SDS011;9503;53.560;10.246;2023-11-19T06:54:17;20.07;;;8.60;;
18748;SDS011;9503;53.560;10.246;2023-11-19T06:56:43;32.20;;;10.23;;
18748;SDS011;9503;53.560;10.246;2023-11-19T06:59:10;24.90;;;11.37;;
18748;SDS011;9503;53.560;10.246;2023-11-19T07:01:37;20.20;;;9.33;;
18748;SDS011;9503;53.560;10.246;2023-11-19T07:04:05;31.17;;;10.97;;
18748;SDS011;9503;53.560;10.246;2023-11-19T07:06:34;27.73;;;11.33;;
18748;SDS011;9503;53.560;10.246;2023-11-19T07:09:01;28.47;;;10.47;;
18748;SDS011;9503;53.560;10.246;2023-11-19T07:11:34;24.77;;;9.60;;
18748;SDS011;9503;53.560;10.246;2023-11-19T07:14:01;29.67;;;9.47;;
18748;SDS011;9503;53.560;10.246;2023-11-19T07:16:28;27.13;;;9.40;;
18748;SDS011;9503;53.560;10.246;2023-11-19T07:18:54;37.13;;;10.77;;
18748;SDS011;9503;53.560;10.246;2023-11-19T07:21:22;25.50;;;10.40;;
18748;SDS011;9503;53.560;10.246;2023-11-19T07:23:49;30.67;;;9.27;;
18748;SDS011;9503;53.560;10.246;2023-11-19T07:26:16;30.37;;;9.57;;
18748;SDS011;9503;53.560;10.246;2023-11-19T07:28:43;31.13;;;9.83;;
18748;SDS011;9503;53.560;10.246;2023-11-19T07:31:10;21.50;;;8.57;;
18748;SDS011;9503;53.560;10.246;2023-11-19T07:33:37;33.27;;;9.10;;
18748;SDS011;9503;53.560;10.246;2023-11-19T07:36:07;28.03;;;9.47;;
18748;SDS011;9503;53.560;10.246;2023-11-19T07:38:35;27.53;;;8.63;;
18748;SDS011;9503;53.560;10.246;2023-11-19T07:41:03;27.27;;;9.13;;
18748;SDS011;9503;53.560;10.246;2023-11-19T07:43:31;31.53;;;8.33;;
18748;SDS011;9503;53.560;10.246;2023-11-19T07:45:58;29.53;;;7.63;;
18748;SDS011;9503;53.560;10.246;2023-11-19T07:48:25;30.97;;;8.23;;
18748;SDS011;9503;53.560;10.246;2023-11-19T07:50:51;29.30;;;8.30;;
18748;SDS011;9503;53.560;10.246;2023-11-19T07:53:19;25.10;;;7.13;;
18748;SDS011;9503;53.560;10.246;2023-11-19T07:55:47;24.83;;;8.20;;
18748;SDS011;9503;53.560;10.246;2023-11-19T07:58:13;30.67;;;7.83;;
18748;SDS011;9503;53.560;10.246;2023-11-19T08:00:40;29.77;;;7.33;;
18748;SDS011;9503;53.560;10.246;2023-11-19T08:03:07;29.13;;;8.47;;
18748;SDS011;9503;53.560;10.246;2023-11-19T08:05:33;35.93;;;7.90;;
18748;SDS011;9503;53.560;10.246;2023-11-19T08:08:00;29.67;;;8.00;;
18748;SDS011;9503;53.560;10.246;2023-11-19T08:10:26;27.27;;;7.03;;
18748;SDS011;9503;53.560;10.246;2023-11-19T08:12:55;27.07;;;7.77;;
18748;SDS011;9503;53.560;10.246;2023-11-19T08:15:21;31.33;;;8.23;;
18748;SDS011;9503;53.560;10.246;2023-11-19T08:17:48;36.10;;;8.33;;
18748;SDS011;9503;53.560;10.246;2023-11-19T08:20:15;28.17;;;7.90;;
18748;SDS011;9503;53.560;10.246;2023-11-19T08:22:41;33.50;;;7.37;;
18748;SDS011;9503;53.560;10.246;2023-11-19T08:25:08;30.40;;;7.20;;
18748;SDS011;9503;53.560;10.246;2023-11-19T08:27:35;32.43;;;7.70;;
18748;SDS011;9503;53.560;10.246;2023-11-19T08:30:03;40.20;;;7.43;;
18748;SDS011;9503;53.560;10.246;2023-11-19T08:32:31;34.63;;;6.53;;
18748;SDS011;9503;53.560;10.246;2023-11-19T08:34:58;28.13;;;7.67;;
18748;SDS011;9503;53.560;10.246;2023-11-19T08:37:25;29.77;;;6.40;;
18748;SDS011;9503;53.560;10.246;2023-11-19T08:39:52;33.80;;;5.90;;
18748;SDS011;9503;53.560;10.246;2023-11-19T08:42:18;32.93;;;6.40;;
18748;SDS011;9503;53.560;10.246;2023-11-19T08:44:48;41.43;;;7.63;;
18748;SDS011;9503;53.560;10.246;2023-11-19T08:47:17;36.17;;;6.83;;
18748;SDS011;9503;53.560;10.246;2023-11-19T08:49:44;32.90;;;7.23;;
18748;SDS011;9503;53.560;10.246;2023-11-19T08:52:10;21.77;;;6.47;;
18748;SDS011;9503;53.560;10.246;2023-11-19T08:54:37;33.10;;;6.80;;
18748;SDS011;9503;53.560;10.246;2023-11-19T08:57:04;35.33;;;6.97;;
18748;SDS011;9503;53.560;10.246;2023-11-19T08:59:32;32.10;;;8.17;;
18748;SDS011;9503;53.560;10.246;2023-11-19T09:01:59;33.07;;;5.67;;
18748;SDS011;9503;53.560;10.246;2023-11-19T09:04:27;32.90;;;7.20;;
18748;SDS011;9503;53.560;10.246;2023-11-19T09:06:53;36.10;;;6.70;;
18748;SDS011;9503;53.560;10.246;2023-11-19T09:09:20;32.97;;;6.30;;
18748;SDS011;9503;53.560;10.246;2023-11-19T09:11:47;36.70;;;6.40;;
18748;SDS011;9503;53.560;10.246;2023-11-19T09:14:13;38.77;;;6.93;;
18748;SDS011;9503;53.560;10.246;2023-11-19T09:16:40;36.17;;;6.53;;
18748;SDS011;9503;53.560;10.246;2023-11-19T09:19:07;34.07;;;7.07;;
18748;SDS011;9503;53.560;10.246;2023-11-19T09:21:35;31.13;;;5.47;;
18748;SDS011;9503;53.560;10.246;2023-11-19T09:24:04;30.17;;;6.10;;
18748;SDS011;9503;53.560;10.246;2023-11-19T09:26:32;39.00;;;7.27;;
18748;SDS011;9503;53.560;10.246;2023-11-19T09:28:59;26.43;;;6.00;;
18748;SDS011;9503;53.560;10.246;2023-11-19T09:31:26;39.50;;;7.53;;
18748;SDS011;9503;53.560;10.246;2023-11-19T09:33:52;39.97;;;6.53;;
18748;SDS011;9503;53.560;10.246;2023-11-19T09:36:19;39.47;;;7.57;;
18748;SDS011;9503;53.560;10.246;2023-11-19T09:38:47;30.50;;;6.50;;
18748;SDS011;9503;53.560;10.246;2023-11-19T09:41:14;32.77;;;6.13;;
18748;SDS011;9503;53.560;10.246;2023-11-19T09:43:42;34.40;;;5.37;;
18748;SDS011;9503;53.560;10.246;2023-11-19T09:46:09;23.97;;;5.37;;
18748;SDS011;9503;53.560;10.246;2023-11-19T09:48:36;23.77;;;5.33;;
18748;SDS011;9503;53.560;10.246;2023-11-19T09:51:05;38.67;;;6.20;;
18748;SDS011;9503;53.560;10.246;2023-11-19T09:53:33;35.93;;;6.30;;
18748;SDS011;9503;53.560;10.246;2023-11-19T09:56:01;31.20;;;6.70;;
18748;SDS011;9503;53.560;10.246;2023-11-19T09:58:28;34.60;;;6.23;;
18748;SDS011;9503;53.560;10.246;2023-11-19T10:00:56;28.27;;;5.93;;
18748;SDS011;9503;53.560;10.246;2023-11-19T10:03:24;28.43;;;5.43;;
18748;SDS011;9503;53.560;10.246;2023-11-19T10:05:53;24.80;;;4.40;;
18748;SDS011;9503;53.560;10.246;2023-11-19T10:08:21;33.83;;;6.93;;
18748;SDS011;9503;53.560;10.246;2023-11-19T10:10:47;31.33;;;5.30;;
18748;SDS011;9503;53.560;10.246;2023-11-19T10:13:15;30.43;;;5.13;;
18748;SDS011;9503;53.560;10.246;2023-11-19T10:15:42;26.40;;;5.83;;
18748;SDS011;9503;53.560;10.246;2023-11-19T10:18:10;30.10;;;4.90;;
18748;SDS011;9503;53.560;10.246;2023-11-19T10:20:36;37.60;;;7.60;;
18748;SDS011;9503;53.560;10.246;2023-11-19T10:23:03;30.07;;;6.67;;
18748;SDS011;9503;53.560;10.246;2023-11-19T10:25:31;29.50;;;5.23;;
18748;SDS011;9503;53.560;10.246;2023-11-19T10:27:59;30.93;;;6.50;;
18748;SDS011;9503;53.560;10.246;2023-11-19T10:30:27;28.90;;;6.00;;
18748;SDS011;9503;53.560;10.246;2023-11-19T10:33:04;32.93;;;5.83;;
18748;SDS011;9503;53.560;10.246;2023-11-19T10:35:32;30.07;;;5.83;;
18748;SDS011;9503;53.560;10.246;2023-11-19T10:38:00;32.03;;;7.10;;
18748;SDS011;9503;53.560;10.246;2023-11-19T10:40:39;34.17;;;6.67;;
18748;SDS011;9503;53.560;10.246;2023-11-19T10:43:06;28.63;;;5.43;;
18748;SDS011;9503;53.560;10.246;2023-11-19T10:45:35;25.07;;;5.40;;
18748;SDS011;9503;53.560;10.246;2023-11-19T10:48:03;39.57;;;6.60;;
18748;SDS011;9503;53.560;10.246;2023-11-19T10:50:32;37.00;;;6.27;;
18748;SDS011;9503;53.560;10.246;2023-11-19T10:52:59;31.57;;;5.50;;
18748;SDS011;9503;53.560;10.246;2023-11-19T10:55:27;29.03;;;5.53;;
18748;SDS011;9503;53.560;10.246;2023-11-19T10:57:56;29.03;;;5.30;;
18748;SDS011;9503;53.560;10.246;2023-11-19T11:00:25;34.20;;;6.20;;
18748;SDS011;9503;53.560;10.246;2023-11-19T11:03:00;26.57;;;5.33;;
18748;SDS011;9503;53.560;10.246;2023-11-19T11:05:27;32.07;;;5.40;;
18748;SDS011;9503;53.560;10.246;2023-11-19T11:07:55;20.67;;;4.97;;
18748;SDS011;9503;53.560;10.246;2023-11-19T11:10:22;28.33;;;5.10;;
18748;SDS011;9503;53.560;10.246;2023-11-19T11:12:52;30.33;;;5.23;;
18748;SDS011;9503;53.560;10.246;2023-11-19T11:15:24;25.43;;;4.40;;
18748;SDS011;9503;53.560;10.246;2023-11-19T11:17:53;35.77;;;5.33;;
18748;SDS011;9503;53.560;10.246;2023-11-19T11:20:25;35.77;;;5.90;;
18748;SDS011;9503;53.560;10.246;2023-11-19T11:22:55;30.23;;;5.33;;
18748;SDS011;9503;53.560;10.246;2023-11-19T11:25:52;26.83;;;6.00;;
18748;SDS011;9503;53.560;10.246;2023-11-19T11:28:34;30.23;;;5.03;;
18748;SDS011;9503;53.560;10.246;2023-11-19T11:31:22;23.43;;;4.90;;
18748;SDS011;9503;53.560;10.246;2023-11-19T11:34:03;31.07;;;5.10;;
18748;SDS011;9503;53.560;10.246;2023-11-19T11:36:44;25.63;;;5.23;;
18748;SDS011;9503;53.560;10.246;2023-11-19T11:39:20;27.63;;;5.43;;
18748;SDS011;9503;53.560;10.246;2023-11-19T11:44:59;36.37;;;5.03;;
18748;SDS011;9503;53.560;10.246;2023-11-19T11:50:29;30.53;;;5.47;;
18748;SDS011;9503;53.560;10.246;2023-11-19T11:53:15;23.93;;;4.27;;
18748;SDS011;9503;53.560;10.246;2023-11-19T11:55:52;27.70;;;5.00;;
18748;SDS011;9503;53.560;10.246;2023-11-19T11:58:27;28.97;;;5.70;;
18748;SDS011;9503;53.560;10.246;2023-11-19T12:00:57;31.57;;;5.97;;
18748;SDS011;9503;53.560;10.246;2023-11-19T12:03:26;31.63;;;5.23;;
18748;SDS011;9503;53.560;10.246;2023-11-19T12:05:56;40.33;;;6.70;;
18748;SDS011;9503;53.560;10.246;2023-11-19T12:08:25;33.80;;;5.97;;
18748;SDS011;9503;53.560;10.246;2023-11-19T12:10:53;37.97;;;7.07;;
18748;SDS011;9503;53.560;10.246;2023-11-19T12:13:22;30.07;;;5.40;;
18748;SDS011;9503;53.560;10.246;2023-11-19T12:16:08;28.10;;;5.27;;
18748;SDS011;9503;53.560;10.246;2023-11-19T12:18:35;38.33;;;7.17;;
18748;SDS011;9503;53.560;10.246;2023-11-19T12:21:03;28.33;;;5.67;;
18748;SDS011;9503;53.560;10.246;2023-11-19T12:23:31;36.13;;;5.83;;
18748;SDS011;9503;53.560;10.246;2023-11-19T12:25:58;25.50;;;5.93;;
18748;SDS011;9503;53.560;10.246;2023-11-19T12:28:25;32.97;;;5.13;;
18748;SDS011;9503;53.560;10.246;2023-11-19T12:30:52;31.13;;;5.30;;
18748;SDS011;9503;53.560;10.246;2023-11-19T12:33:19;31.43;;;5.47;;
18748;SDS011;9503;53.560;10.246;2023-11-19T12:35:46;35.57;;;5.90;;
18748;SDS011;9503;53.560;10.246;2023-11-19T12:38:19;30.97;;;4.93;;
18748;SDS011;9503;53.560;10.246;2023-11-19T12:40:46;21.77;;;4.63;;
18748;SDS011;9503;53.560;10.246;2023-11-19T12:43:21;27.70;;;4.83;;
18748;SDS011;9503;53.560;10.246;2023-11-19T12:45:48;29.87;;;5.83;;
18748;SDS011;9503;53.560;10.246;2023-11-19T12:48:15;26.87;;;4.80;;
18748;SDS011;9503;53.560;10.246;2023-11-19T12:50:51;29.20;;;6.13;;
18748;SDS011;9503;53.560;10.246;2023-11-19T12:53:20;25.20;;;5.20;;
18748;SDS011;9503;53.560;10.246;2023-11-19T12:55:47;24.70;;;4.77;;
18748;SDS011;9503;53.560;10.246;2023-11-19T12:58:27;33.63;;;5.23;;
18748;SDS011;9503;53.560;10.246;2023-11-19T13:00:58;21.20;;;4.67;;
18748;SDS011;9503;53.560;10.246;2023-11-19T13:03:29;32.90;;;5.10;;
18748;SDS011;9503;53.560;10.246;2023-11-19T13:06:03;27.70;;;5.27;;
18748;SDS011;9503;53.560;10.246;2023-11-19T13:08:37;27.37;;;5.53;;
18748;SDS011;9503;53.560;10.246;2023-11-19T13:11:04;28.67;;;6.10;;
18748;SDS011;9503;53.560;10.246;2023-11-19T13:13:32;30.10;;;5.13;;
18748;SDS011;9503;53.560;10.246;2023-11-19T13:16:03;21.47;;;4.40;;
18748;SDS011;9503;53.560;10.246;2023-11-19T13:18:31;25.10;;;5.23;;
18748;SDS011;9503;53.560;10.246;2023-11-19T13:20:58;26.03;;;4.63;;
18748;SDS011;9503;53.560;10.246;2023-11-19T13:23:24;26.43;;;5.10;;
18748;SDS011;9503;53.560;10.246;2023-11-19T13:25:52;24.00;;;4.83;;
18748;SDS011;9503;53.560;10.246;2023-11-19T13:28:19;29.23;;;6.83;;
18748;SDS011;9503;53.560;10.246;2023-11-19T13:30:45;26.47;;;5.90;;
18748;SDS011;9503;53.560;10.246;2023-11-19T13:33:12;25.93;;;4.87;;
18748;SDS011;9503;53.560;10.246;2023-11-19T13:35:39;19.57;;;4.93;;
18748;SDS011;9503;53.560;10.246;2023-11-19T13:38:07;31.90;;;5.70;;
18748;SDS011;9503;53.560;10.246;2023-11-19T13:40:34;28.10;;;5.40;;
18748;SDS011;9503;53.560;10.246;2023-11-19T13:43:02;27.70;;;5.20;;
18748;SDS011;9503;53.560;10.246;2023-11-19T13:45:28;26.90;;;4.70;;
18748;SDS011;9503;53.560;10.246;2023-11-19T13:47:55;22.07;;;5.33;;
18748;SDS011;9503;53.560;10.246;2023-11-19T13:50:22;28.80;;;4.93;;
18748;SDS011;9503;53.560;10.246;2023-11-19T13:52:49;24.30;;;5.53;;
18748;SDS011;9503;53.560;10.246;2023-11-19T13:55:15;28.03;;;5.20;;
18748;SDS011;9503;53.560;10.246;2023-11-19T13:57:43;23.67;;;5.13;;
18748;SDS011;9503;53.560;10.246;2023-11-19T14:00:12;24.97;;;5.97;;
18748;SDS011;9503;53.560;10.246;2023-11-19T14:02:41;32.90;;;7.10;;
18748;SDS011;9503;53.560;10.246;2023-11-19T14:05:08;30.23;;;4.63;;
18748;SDS011;9503;53.560;10.246;2023-11-19T14:07:35;20.30;;;4.83;;
18748;SDS011;9503;53.560;10.246;2023-11-19T14:10:02;19.17;;;4.73;;
18748;SDS011;9503;53.560;10.246;2023-11-19T14:12:30;30.53;;;4.43;;
18748;SDS011;9503;53.560;10.246;2023-11-19T14:14:57;25.03;;;4.60;;
18748;SDS011;9503;53.560;10.246;2023-11-19T14:17:26;23.70;;;4.67;;
18748;SDS011;9503;53.560;10.246;2023-11-19T14:19:53;28.40;;;4.67;;
18748;SDS011;9503;53.560;10.246;2023-11-19T14:22:19;23.13;;;5.30;;
18748;SDS011;9503;53.560;10.246;2023-11-19T14:24:46;21.00;;;3.87;;
18748;SDS011;9503;53.560;10.246;2023-11-19T14:27:12;27.73;;;5.03;;
18748;SDS011;9503;53.560;10.246;2023-11-19T14:29:40;22.63;;;4.37;;
18748;SDS011;9503;53.560;10.246;2023-11-19T14:32:06;28.77;;;4.70;;
18748;SDS011;9503;53.560;10.246;2023-11-19T14:34:34;28.30;;;5.30;;
18748;SDS011;9503;53.560;10.246;2023-11-19T14:37:01;19.70;;;4.90;;
18748;SDS011;9503;53.560;10.246;2023-11-19T14:39:27;31.10;;;5.53;;
18748;SDS011;9503;53.560;10.246;2023-11-19T14:41:56;25.00;;;5.20;;
18748;SDS011;9503;53.560;10.246;2023-11-19T14:44:26;22.43;;;4.87;;
18748;SDS011;9503;53.560;10.246;2023-11-19T14:46:54;29.37;;;5.13;;
18748;SDS011;9503;53.560;10.246;2023-11-19T14:49:20;27.80;;;5.27;;